Храброво

Карта отелей и гостиниц, располагающихся рядом с аэропортом Храброво :

Храброво
Калининград
Калининградская область 54° 53' 24" N, 20° 35' 33" E
Код аэродрома ИКАО
UMKK
Код аэродрома RU
УМКК
Координаты
N54.89000° E020.59250°
Превышение над уровнем моря
13
Основная полоса
06/24
Курс магнитный
060,4/240,4
Длина основной ВПП
2500
Ширина основной ВПП
45
Покрытие основной ВПП
Твёрдое (асфальтобетон)
Освещение ВПП
Постоянное
Тип: 
Аэродром
Класс аэродрома: 
Международный
Принадлежность: 
ГА
Статус: 
Действующий
Страна: 
Россия
Регион: 
Калининградская область
Город: 
Калининград
Дополнительная информация: 
Совместного базирования (ФАВТ, МО РФ, ФСБ, ФТС, МЧС, ЛукОйл). Нкр.=(500)м. Военный индекс: XMKK / ЬМКК. В 2017-2018 г. проводится реконструкция, ВПП удлиняется на восток, возможны ограничения полетов. БПРМ-24 и ИЛС не работают. Заход VOR/DME.
Схемы аэропортов: 
Погода: 

Авиационная погода в Храброво

Регион: 
Погода METAR: 
UMKK 241700Z 00000MPS CAVOK 05/03 Q1029 R24/CLRD95 NOSIG RMK QFE770/1027
Время наблюдения
2021-10-24T17:00:00Z
Температура C
5.0
Точка росы
3.0
Направление ветра
0
Скорость ветра (узлы)
0
Метео видимость
6.21
Явления погоды
Условия полета
VFR
Аэропорт подробнее: 

Найти трансфер

С помощью этой формы Вы можете найти трансфер из аэропорта Храброво в город, аэропорт или вокзал:

Карта места

Javascript is required to view this map.

Погода в аэропортах:

Авиационная погода в Синопе

Регион: 
Погода METAR: 
LTCM 241650Z 32008KT 210V360 7000 -SHRA SCT015 BKN025 BKN070 13/11 Q1026
Время наблюдения
2021-10-24T16:50:00Z
Температура C
13.0
Точка росы
11.0
Направление ветра
320
Скорость ветра (узлы)
8
Метео видимость
4.35
Явления погоды
-SHRA
Условия полета
MVFR

Авиационная погода в Мирном

Регион: 
Погода METAR: 
UERR 241700Z 21003MPS 9999 -SHSN FEW009 OVC020CB M00/M01 Q0997 R25/591032 NOSIG RMK QFE717/0956
Время наблюдения
2021-10-24T17:00:00Z
Температура C
0.0
Точка росы
-1.0
Направление ветра
210
Скорость ветра (узлы)
6
Метео видимость
6.21
Явления погоды
-SHSN
Условия полета
MVFR
Аэропорт подробнее: 

Авиационная погода в Берлевоге

Регион: 
Погода METAR: 
ENBV 221920Z 01015KT 9999 VCSH FEW008 SCT030 BKN045 00/M06 Q1000
Время наблюдения
2021-10-22T19:20:00Z
Температура C
0.0
Точка росы
-6.0
Направление ветра
10
Скорость ветра (узлы)
15
Метео видимость
6.21
Явления погоды
VCSH
Условия полета
VFR

Авиационная погода в Вардё

Регион: 
Погода METAR: 
ENSS 241650Z 34006KT 9999 VCSH SCT030 M01/M06 Q1013 RMK WIND 500FT 36014KT
Время наблюдения
2021-10-24T16:50:00Z
Температура C
-1.0
Точка росы
-6.0
Направление ветра
340
Скорость ветра (узлы)
6
Метео видимость
6.21
Явления погоды
VCSH
Условия полета
VFR